createdAt,value
2019-01-09T00:00:14.980Z,2.6
2019-01-09T00:01:24.214Z,2.5
2019-01-09T00:02:33.359Z,2.5
2019-01-09T00:03:42.593Z,2.5
2019-01-09T00:04:51.874Z,2.6
2019-01-09T00:06:00.976Z,2.6
2019-01-09T00:07:10.135Z,2.6
2019-01-09T00:08:19.353Z,2.5
2019-01-09T00:09:28.527Z,2.6
2019-01-09T00:10:37.716Z,2.6
2019-01-09T00:11:46.909Z,2.5
2019-01-09T00:12:56.109Z,2.6
2019-01-09T00:14:05.302Z,2.6
2019-01-09T00:15:14.496Z,2.5
2019-01-09T00:16:23.693Z,2.6
2019-01-09T00:17:32.883Z,2.6
2019-01-09T00:18:42.159Z,2.5
2019-01-09T00:19:51.267Z,2.5
2019-01-09T00:21:00.450Z,2.6
2019-01-09T00:22:09.678Z,2.6
2019-01-09T00:23:18.835Z,2.6
2019-01-09T00:24:28.029Z,2.5
2019-01-09T00:25:37.223Z,2.5
2019-01-09T00:26:46.457Z,2.5
2019-01-09T00:27:55.606Z,2.5
2019-01-09T00:29:04.802Z,2.5
2019-01-09T00:30:14.004Z,2.6
2019-01-09T00:31:23.201Z,2.6
2019-01-09T00:32:32.414Z,2.5
2019-01-09T00:33:41.561Z,2.5
2019-01-09T00:34:50.775Z,2.5
2019-01-09T00:35:59.958Z,2.6
2019-01-09T00:37:09.146Z,2.6
2019-01-09T00:38:18.366Z,2.6
2019-01-09T00:39:27.538Z,2.6
2019-01-09T00:40:36.723Z,2.6
2019-01-09T00:41:45.926Z,2.6
2019-01-09T00:42:55.133Z,2.6
2019-01-09T00:44:04.354Z,2.6
2019-01-09T00:45:13.495Z,2.6
2019-01-09T00:46:22.756Z,2.6
2019-01-09T00:47:31.885Z,2.5
2019-01-09T00:48:41.082Z,2.5
2019-01-09T00:49:50.283Z,2.6
2019-01-09T00:50:59.451Z,2.6
2019-01-09T00:52:08.650Z,2.6
2019-01-09T00:53:17.838Z,2.6
2019-01-09T00:54:27.023Z,2.6
2019-01-09T00:55:36.236Z,2.5
2019-01-09T00:56:45.423Z,2.6
2019-01-09T00:57:54.606Z,2.5
2019-01-09T00:59:03.865Z,2.6
2019-01-09T01:00:12.990Z,2.5
2019-01-09T01:01:22.207Z,2.5
2019-01-09T01:02:31.389Z,2.5
2019-01-09T01:03:40.641Z,2.5
2019-01-09T01:04:49.757Z,2.5
2019-01-09T01:05:58.959Z,2.6
2019-01-09T01:07:08.150Z,2.6
2019-01-09T01:08:17.446Z,2.6
2019-01-09T01:09:26.534Z,2.5
2019-01-09T01:10:35.728Z,2.5
2019-01-09T01:11:44.915Z,2.5
2019-01-09T01:12:54.127Z,2.5
2019-01-09T01:14:03.303Z,2.5
2019-01-09T01:15:12.524Z,2.5
2019-01-09T01:16:21.675Z,2.5
2019-01-09T01:17:30.870Z,2.5
2019-01-09T01:18:40.062Z,2.5
2019-01-09T01:19:49.258Z,2.5
2019-01-09T01:20:58.447Z,2.6
2019-01-09T01:22:07.642Z,2.5
2019-01-09T01:23:16.858Z,2.6
2019-01-09T01:24:26.052Z,2.6
2019-01-09T01:25:35.244Z,2.5
2019-01-09T01:26:44.422Z,2.5
2019-01-09T01:27:53.626Z,2.5
2019-01-09T01:29:02.848Z,2.5
2019-01-09T01:30:12.024Z,2.5
2019-01-09T01:31:21.226Z,2.6
2019-01-09T01:32:30.381Z,2.5
2019-01-09T01:33:39.637Z,2.5
2019-01-09T01:34:48.761Z,2.5
2019-01-09T01:35:57.955Z,2.5
2019-01-09T01:37:07.153Z,2.5
2019-01-09T01:38:16.396Z,2.5
2019-01-09T01:39:25.526Z,2.5
2019-01-09T01:40:34.712Z,2.5
2019-01-09T01:41:43.899Z,2.5
2019-01-09T01:42:53.151Z,2.5
2019-01-09T01:44:02.353Z,2.5
2019-01-09T01:45:11.495Z,2.5
2019-01-09T01:46:20.667Z,2.5
2019-01-09T01:47:29.918Z,2.4
2019-01-09T01:48:39.062Z,2.4
2019-01-09T01:49:48.272Z,2.4
2019-01-09T01:50:57.436Z,2.5
2019-01-09T01:52:06.618Z,2.5
2019-01-09T01:53:15.821Z,2.5
2019-01-09T01:54:25.004Z,2.5
2019-01-09T01:55:34.196Z,2.5
2019-01-09T01:56:43.379Z,2.5
2019-01-09T01:57:52.570Z,2.4
2019-01-09T01:59:01.774Z,2.5
2019-01-09T02:00:10.962Z,2.4
2019-01-09T02:01:20.165Z,2.5
2019-01-09T02:02:29.385Z,2.4
2019-01-09T02:03:38.574Z,2.4
2019-01-09T02:04:47.713Z,2.5
2019-01-09T02:06:03.592Z,2.5
2019-01-09T02:07:06.156Z,2.4
2019-01-09T02:08:15.298Z,2.5
2019-01-09T02:09:24.478Z,2.4
2019-01-09T02:10:33.654Z,2.5
2019-01-09T02:11:42.841Z,2.5
2019-01-09T02:12:52.060Z,2.4
2019-01-09T02:14:01.311Z,2.4
2019-01-09T02:15:10.417Z,2.5
2019-01-09T02:16:19.647Z,2.5
2019-01-09T02:17:28.826Z,2.4
2019-01-09T02:18:38.015Z,2.5
2019-01-09T02:19:47.172Z,2.4
2019-01-09T02:20:56.486Z,2.4
2019-01-09T02:22:05.558Z,2.4
2019-01-09T02:23:14.748Z,2.4
2019-01-09T02:24:24.072Z,2.4
2019-01-09T02:25:33.138Z,2.4
2019-01-09T02:26:42.323Z,2.4
2019-01-09T02:27:51.506Z,2.4
2019-01-09T02:29:00.698Z,2.5
2019-01-09T02:30:09.899Z,2.4
2019-01-09T02:31:19.145Z,2.4
2019-01-09T02:32:28.259Z,2.4
2019-01-09T02:33:37.448Z,2.4
2019-01-09T02:34:46.736Z,2.4
2019-01-09T02:35:55.834Z,2.5
2019-01-09T02:37:05.028Z,2.4
2019-01-09T02:38:14.220Z,2.4
2019-01-09T02:39:23.401Z,2.4
2019-01-09T02:40:32.584Z,2.4
2019-01-09T02:41:41.914Z,2.4
2019-01-09T02:42:50.975Z,2.4
2019-01-09T02:44:00.151Z,2.4
2019-01-09T02:45:09.381Z,2.4
2019-01-09T02:46:18.533Z,2.3
2019-01-09T02:47:27.720Z,2.4
2019-01-09T02:48:36.903Z,2.4
2019-01-09T02:49:46.099Z,2.4
2019-01-09T02:50:55.281Z,2.4
2019-01-09T02:52:04.569Z,2.4
2019-01-09T02:53:13.661Z,2.4
2019-01-09T02:54:22.880Z,2.3
2019-01-09T02:55:32.040Z,2.3
2019-01-09T02:56:41.411Z,2.4
2019-01-09T02:57:56.433Z,2.4
2019-01-09T02:58:59.603Z,2.4
2019-01-09T03:00:08.783Z,2.4
2019-01-09T03:01:17.977Z,2.4
2019-01-09T03:02:27.162Z,2.4
2019-01-09T03:03:36.407Z,2.4
2019-01-09T03:04:45.641Z,2.4
2019-01-09T03:05:54.716Z,2.4
2019-01-09T03:07:03.923Z,2.4
2019-01-09T03:08:13.099Z,2.4
2019-01-09T03:09:22.283Z,2.4
2019-01-09T03:10:31.472Z,2.3
2019-01-09T03:11:40.672Z,2.3
2019-01-09T03:12:49.854Z,2.3
2019-01-09T03:13:59.050Z,2.4
2019-01-09T03:15:08.250Z,2.3
2019-01-09T03:16:17.434Z,2.3
2019-01-09T03:17:26.611Z,2.3
2019-01-09T03:18:35.789Z,2.4
2019-01-09T03:19:44.978Z,2.4
2019-01-09T03:20:54.358Z,2.3
2019-01-09T03:22:03.391Z,2.3
2019-01-09T03:23:12.550Z,2.3
2019-01-09T03:24:21.758Z,2.3
2019-01-09T03:25:30.924Z,2.4
2019-01-09T03:26:40.119Z,2.3
2019-01-09T03:27:49.344Z,2.4
2019-01-09T03:28:58.512Z,2.4
2019-01-09T03:30:07.669Z,2.4
2019-01-09T03:31:16.939Z,2.3
2019-01-09T03:32:26.047Z,2.3
2019-01-09T03:33:35.275Z,2.3
2019-01-09T03:34:44.430Z,2.3
2019-01-09T03:35:53.612Z,2.3
2019-01-09T03:37:02.807Z,2.3
2019-01-09T03:38:12.026Z,2.3
2019-01-09T03:39:21.170Z,2.3
2019-01-09T03:40:30.378Z,2.4
2019-01-09T03:41:39.552Z,2.3
2019-01-09T03:42:48.732Z,2.3
2019-01-09T03:43:57.921Z,2.3
2019-01-09T03:45:07.244Z,2.3
2019-01-09T03:46:16.391Z,2.3
2019-01-09T03:47:25.532Z,2.3
2019-01-09T03:48:34.672Z,2.3
2019-01-09T03:49:43.870Z,2.3
2019-01-09T03:50:53.047Z,2.4
2019-01-09T03:52:02.323Z,2.3
2019-01-09T03:53:11.430Z,2.4
2019-01-09T03:54:20.615Z,2.3
2019-01-09T03:55:29.801Z,2.4
2019-01-09T03:56:38.997Z,2.4
2019-01-09T03:57:48.170Z,2.3
2019-01-09T03:58:57.358Z,2.3
2019-01-09T04:00:06.554Z,2.3
2019-01-09T04:01:15.740Z,2.3
2019-01-09T04:02:24.913Z,2.3
2019-01-09T04:03:34.131Z,2.3
2019-01-09T04:04:43.293Z,2.4
2019-01-09T04:05:52.472Z,2.3
2019-01-09T04:07:01.658Z,2.3
2019-01-09T04:08:10.869Z,2.3
2019-01-09T04:09:20.034Z,2.3
2019-01-09T04:10:29.224Z,2.3
2019-01-09T04:11:38.426Z,2.3
2019-01-09T04:12:47.607Z,2.4
2019-01-09T04:13:56.788Z,2.4
2019-01-09T04:15:05.968Z,2.4
2019-01-09T04:16:15.161Z,2.3
2019-01-09T04:17:24.626Z,2.4
2019-01-09T04:18:33.586Z,2.3
2019-01-09T04:19:42.726Z,2.4
2019-01-09T04:20:51.911Z,2.4
2019-01-09T04:22:01.200Z,2.4
2019-01-09T04:23:10.298Z,2.4
2019-01-09T04:24:19.479Z,2.4
2019-01-09T04:25:28.679Z,2.4
2019-01-09T04:26:37.845Z,2.4
2019-01-09T04:27:47.036Z,2.3
2019-01-09T04:28:56.225Z,2.3
2019-01-09T04:30:05.415Z,2.3
2019-01-09T04:31:14.594Z,2.4
2019-01-09T04:32:23.794Z,2.4
2019-01-09T04:33:32.969Z,2.4
2019-01-09T04:34:42.196Z,2.3
2019-01-09T04:35:51.347Z,2.4
2019-01-09T04:37:00.692Z,2.4
2019-01-09T04:38:09.724Z,2.4
2019-01-09T04:39:18.924Z,2.4
2019-01-09T04:40:28.204Z,2.4
2019-01-09T04:41:37.280Z,2.4
2019-01-09T04:42:46.471Z,2.3
2019-01-09T04:43:55.662Z,2.3
2019-01-09T04:45:04.844Z,2.3
2019-01-09T04:46:14.074Z,2.4
2019-01-09T04:47:23.219Z,2.4
2019-01-09T04:48:32.476Z,2.3
2019-01-09T04:49:41.715Z,2.3
2019-01-09T04:50:50.783Z,2.3
2019-01-09T04:51:59.967Z,2.3
2019-01-09T04:53:09.159Z,2.3
2019-01-09T04:54:18.368Z,2.3
2019-01-09T04:55:27.542Z,2.3
2019-01-09T04:56:36.727Z,2.2
2019-01-09T04:57:46.070Z,2.3
2019-01-09T04:58:55.090Z,2.3
2019-01-09T05:00:04.279Z,2.3
2019-01-09T05:01:13.459Z,2.3
2019-01-09T05:02:22.657Z,2.3
2019-01-09T05:03:31.851Z,2.3
2019-01-09T05:04:41.091Z,2.3
2019-01-09T05:05:50.207Z,2.3
2019-01-09T05:07:00.576Z,2.3
2019-01-09T05:08:08.590Z,2.3
2019-01-09T05:09:17.772Z,2.3
2019-01-09T05:10:26.966Z,2.3
2019-01-09T05:11:36.142Z,2.3
2019-01-09T05:12:45.348Z,2.3
2019-01-09T05:13:54.549Z,2.3
2019-01-09T05:15:03.715Z,2.3
2019-01-09T05:16:12.890Z,2.3
2019-01-09T05:17:22.092Z,2.3
2019-01-09T05:18:31.285Z,2.3
2019-01-09T05:19:40.461Z,2.3
2019-01-09T05:20:49.656Z,2.3
2019-01-09T05:21:58.998Z,2.3
2019-01-09T05:23:08.012Z,2.3
2019-01-09T05:24:17.202Z,2.3
2019-01-09T05:25:26.436Z,2.3
2019-01-09T05:26:35.571Z,2.3
2019-01-09T05:27:44.757Z,2.3
2019-01-09T05:28:53.959Z,2.3
2019-01-09T05:30:03.158Z,2.3
2019-01-09T05:31:12.324Z,2.3
2019-01-09T05:32:21.512Z,2.3
2019-01-09T05:33:30.690Z,2.3
2019-01-09T05:34:39.889Z,2.3
2019-01-09T05:35:49.083Z,2.3
2019-01-09T05:36:58.274Z,2.3
2019-01-09T05:38:07.440Z,2.3
2019-01-09T05:39:16.773Z,2.3
2019-01-09T05:40:25.842Z,2.3
2019-01-09T05:41:35.022Z,2.3
2019-01-09T05:42:44.183Z,2.3
2019-01-09T05:43:53.395Z,2.3
2019-01-09T05:45:02.577Z,2.3
2019-01-09T05:46:11.753Z,2.3
2019-01-09T05:47:20.946Z,2.3
2019-01-09T05:48:30.128Z,2.3
2019-01-09T05:49:39.308Z,2.3
2019-01-09T05:50:48.498Z,2.3
2019-01-09T05:51:57.818Z,2.3
2019-01-09T05:53:06.867Z,2.3
2019-01-09T05:54:16.060Z,2.3
2019-01-09T05:55:25.246Z,2.4
2019-01-09T05:56:34.424Z,2.3
2019-01-09T05:57:43.651Z,2.4
2019-01-09T05:58:52.810Z,2.3
2019-01-09T06:00:01.992Z,2.3
2019-01-09T06:01:11.169Z,2.4
2019-01-09T06:02:20.398Z,2.4
2019-01-09T06:03:29.577Z,2.4
2019-01-09T06:04:38.738Z,2.3
2019-01-09T06:05:47.922Z,2.3
2019-01-09T06:06:57.129Z,2.3
2019-01-09T06:08:06.299Z,2.3
2019-01-09T06:09:15.495Z,2.3
2019-01-09T06:10:24.675Z,2.3
2019-01-09T06:11:33.853Z,2.3
2019-01-09T06:12:43.044Z,2.2
2019-01-09T06:13:52.251Z,2.2
2019-01-09T06:15:01.450Z,2.2
2019-01-09T06:16:11.709Z,2.3
2019-01-09T06:17:19.796Z,2.3
2019-01-09T06:18:28.970Z,2.2
2019-01-09T06:19:38.173Z,2.2
2019-01-09T06:20:47.374Z,2.2
2019-01-09T06:21:56.535Z,2.3
2019-01-09T06:23:05.736Z,2.2
2019-01-09T06:24:14.934Z,2.2
2019-01-09T06:25:24.131Z,2.1
2019-01-09T06:26:33.272Z,2.2
2019-01-09T06:27:42.461Z,2.1
2019-01-09T06:28:51.647Z,2.1
2019-01-09T06:30:00.830Z,2.1
2019-01-09T06:31:10.020Z,2.1
2019-01-09T06:32:19.277Z,2
2019-01-09T06:33:28.425Z,2.1
2019-01-09T06:34:37.570Z,2.1
2019-01-09T06:35:46.774Z,2.1
2019-01-09T06:36:55.954Z,2.1
2019-01-09T06:38:05.132Z,2.1
2019-01-09T06:39:14.338Z,2
2019-01-09T06:40:23.517Z,2
2019-01-09T06:41:32.687Z,2
2019-01-09T06:42:41.874Z,2
2019-01-09T06:43:51.058Z,2
2019-01-09T06:45:00.257Z,2.1
2019-01-09T06:46:09.422Z,2
2019-01-09T06:47:18.640Z,2
2019-01-09T06:48:27.799Z,2
2019-01-09T06:49:36.982Z,2
2019-01-09T06:50:46.202Z,2
2019-01-09T06:51:55.362Z,1.9
2019-01-09T06:53:04.555Z,1.9
2019-01-09T06:54:13.730Z,1.9
2019-01-09T06:55:22.952Z,1.8
2019-01-09T06:56:32.056Z,1.8
2019-01-09T06:57:41.335Z,1.9
2019-01-09T06:58:50.533Z,1.8
2019-01-09T06:59:59.620Z,1.8
2019-01-09T07:01:08.815Z,1.8
2019-01-09T07:02:17.986Z,1.8
2019-01-09T07:03:27.156Z,1.9
2019-01-09T07:04:36.355Z,1.9
2019-01-09T07:05:45.549Z,1.8
2019-01-09T07:06:54.703Z,1.9
2019-01-09T07:08:03.888Z,1.9
2019-01-09T07:09:13.111Z,1.9
2019-01-09T07:10:22.264Z,1.9
2019-01-09T07:11:31.516Z,2
2019-01-09T07:12:40.636Z,2
2019-01-09T07:13:49.807Z,2
2019-01-09T07:14:58.987Z,2
2019-01-09T07:16:08.189Z,2
2019-01-09T07:17:17.404Z,2
2019-01-09T07:18:26.526Z,2
2019-01-09T07:19:35.716Z,2
2019-01-09T07:20:44.906Z,2
2019-01-09T07:21:54.075Z,2
2019-01-09T07:23:03.257Z,2
2019-01-09T07:24:12.454Z,2
2019-01-09T07:25:21.619Z,2
2019-01-09T07:26:30.804Z,2
2019-01-09T07:27:39.989Z,2
2019-01-09T07:28:49.217Z,2
2019-01-09T07:29:58.376Z,2
2019-01-09T07:31:07.548Z,2
2019-01-09T07:32:16.715Z,1.9
2019-01-09T07:33:25.887Z,1.9
2019-01-09T07:34:35.079Z,1.9
2019-01-09T07:35:44.253Z,1.9
2019-01-09T07:36:53.434Z,1.8
2019-01-09T07:38:02.630Z,1.9
2019-01-09T07:39:11.800Z,1.9
2019-01-09T07:40:20.979Z,1.9
2019-01-09T07:41:30.166Z,1.9
2019-01-09T07:42:39.344Z,1.9
2019-01-09T07:43:48.561Z,1.9
2019-01-09T07:44:57.698Z,2
2019-01-09T07:46:06.881Z,2
2019-01-09T07:47:16.077Z,2
2019-01-09T07:48:25.250Z,2
2019-01-09T07:49:34.431Z,2
2019-01-09T07:50:43.617Z,1.9
2019-01-09T07:51:52.798Z,1.9
2019-01-09T07:53:01.978Z,2
2019-01-09T07:54:11.150Z,1.9
2019-01-09T07:55:20.334Z,1.9
2019-01-09T07:56:29.521Z,2
2019-01-09T07:57:38.819Z,1.9
2019-01-09T07:58:47.897Z,1.9
2019-01-09T07:59:57.070Z,2
2019-01-09T08:01:06.244Z,2
2019-01-09T08:02:15.441Z,1.9
2019-01-09T08:03:24.657Z,2
2019-01-09T08:04:33.793Z,2
2019-01-09T08:05:42.973Z,2
2019-01-09T08:06:52.161Z,2.1
2019-01-09T08:08:01.426Z,2
2019-01-09T08:09:10.573Z,2
2019-01-09T08:10:19.700Z,2
2019-01-09T08:11:28.899Z,2.1
2019-01-09T08:12:38.077Z,2.1
2019-01-09T08:13:47.310Z,2
2019-01-09T08:14:56.452Z,2.1
2019-01-09T08:16:05.646Z,2.1
2019-01-09T08:17:14.840Z,2.1
2019-01-09T08:18:24.000Z,2.1
2019-01-09T08:19:33.178Z,2
2019-01-09T08:20:42.383Z,2.1
2019-01-09T08:21:51.555Z,2.1
2019-01-09T08:23:00.737Z,2.1
2019-01-09T08:24:09.926Z,2.1
2019-01-09T08:25:19.116Z,2.1
2019-01-09T08:26:30.447Z,2.1
2019-01-09T08:27:37.482Z,2
2019-01-09T08:28:46.664Z,2
2019-01-09T08:29:55.860Z,2.1
2019-01-09T08:31:05.054Z,2.1
2019-01-09T08:32:14.226Z,2
2019-01-09T08:33:23.422Z,2
2019-01-09T08:34:32.636Z,2.1
2019-01-09T08:35:41.792Z,2
2019-01-09T08:36:50.977Z,2.1
2019-01-09T08:38:02.826Z,2.1
2019-01-09T08:39:09.410Z,2.1
2019-01-09T08:40:18.564Z,2.1
2019-01-09T08:41:27.737Z,2.1
2019-01-09T08:42:36.905Z,2
2019-01-09T08:43:46.094Z,2
2019-01-09T08:44:55.274Z,2
2019-01-09T08:46:04.460Z,2
2019-01-09T08:47:13.696Z,2.1
2019-01-09T08:48:22.848Z,2
2019-01-09T08:49:32.018Z,2
2019-01-09T08:50:41.219Z,2.1
2019-01-09T08:51:50.410Z,2.1
2019-01-09T08:52:59.679Z,2
2019-01-09T08:54:08.764Z,2.1
2019-01-09T08:55:18.007Z,2
2019-01-09T08:56:27.134Z,2
2019-01-09T08:57:36.320Z,2
2019-01-09T08:58:45.520Z,2.1
2019-01-09T08:59:54.697Z,2.1
2019-01-09T09:01:03.998Z,2.2
2019-01-09T09:02:13.078Z,2.1
2019-01-09T09:03:22.252Z,2.1
2019-01-09T09:04:31.500Z,2.1
2019-01-09T09:05:40.670Z,2.2
2019-01-09T09:06:49.821Z,2.2
2019-01-09T09:07:58.994Z,2.1
2019-01-09T09:09:08.188Z,2.1
2019-01-09T09:10:17.392Z,2.1
2019-01-09T09:11:26.559Z,2.1
2019-01-09T09:12:35.733Z,2.1
2019-01-09T09:13:44.944Z,2.1
2019-01-09T09:14:54.176Z,2.1
2019-01-09T09:16:03.314Z,2.1
2019-01-09T09:17:12.564Z,2.1
2019-01-09T09:18:21.680Z,2.1
2019-01-09T09:19:30.864Z,2.1
2019-01-09T09:20:40.057Z,2.1
2019-01-09T09:21:49.345Z,2.2
2019-01-09T09:22:58.425Z,2.2
2019-01-09T09:24:07.628Z,2.2
2019-01-09T09:25:16.806Z,2.2
2019-01-09T09:26:26.004Z,2.2
2019-01-09T09:27:35.178Z,2.2
2019-01-09T09:28:44.372Z,2.2
2019-01-09T09:29:53.556Z,2.2
2019-01-09T09:31:02.774Z,2.3
2019-01-09T09:32:11.936Z,2.3
2019-01-09T09:33:21.175Z,2.2
2019-01-09T09:34:30.311Z,2.3
2019-01-09T09:35:39.504Z,2.2
2019-01-09T09:36:48.713Z,2.2
2019-01-09T09:37:58.030Z,2.2
2019-01-09T09:39:07.093Z,2.3
2019-01-09T09:40:16.363Z,2.3
2019-01-09T09:41:25.489Z,2.3
2019-01-09T09:42:34.650Z,2.3
2019-01-09T09:43:43.851Z,2.3
2019-01-09T09:44:53.081Z,2.3
2019-01-09T09:46:02.245Z,2.3
2019-01-09T09:47:11.414Z,2.4
2019-01-09T09:48:20.632Z,2.5
2019-01-09T09:49:29.812Z,2.5
2019-01-09T09:50:39.010Z,2.5
2019-01-09T09:51:48.188Z,2.5
2019-01-09T09:52:57.387Z,2.5
2019-01-09T09:54:06.609Z,2.4
2019-01-09T09:55:15.783Z,2.4
2019-01-09T09:56:24.975Z,2.4
2019-01-09T09:57:34.160Z,2.5
2019-01-09T09:58:43.548Z,2.5
2019-01-09T09:59:52.553Z,2.5
2019-01-09T10:01:01.762Z,2.5
2019-01-09T10:02:10.963Z,2.6
2019-01-09T10:03:20.146Z,2.6
2019-01-09T10:04:29.346Z,2.5
2019-01-09T10:05:38.571Z,2.5
2019-01-09T10:06:47.742Z,2.5
2019-01-09T10:07:56.949Z,2.6
2019-01-09T10:09:06.152Z,2.5
2019-01-09T10:10:15.377Z,2.6
2019-01-09T10:11:24.651Z,2.6
2019-01-09T10:12:33.723Z,2.6
2019-01-09T10:13:42.971Z,2.7
2019-01-09T10:14:52.119Z,2.6
2019-01-09T10:16:01.373Z,2.6
2019-01-09T10:17:10.514Z,2.6
2019-01-09T10:18:19.721Z,2.6
2019-01-09T10:19:28.989Z,2.7
2019-01-09T10:20:38.104Z,2.6
2019-01-09T10:21:47.337Z,2.6
2019-01-09T10:22:56.502Z,2.7
2019-01-09T10:24:05.719Z,2.7
2019-01-09T10:25:14.926Z,2.7
2019-01-09T10:26:24.105Z,2.7
2019-01-09T10:27:33.302Z,2.7
2019-01-09T10:28:42.520Z,2.7
2019-01-09T10:29:51.699Z,2.7
2019-01-09T10:31:00.901Z,2.8
2019-01-09T10:32:10.100Z,2.8
2019-01-09T10:33:19.304Z,2.8
2019-01-09T10:34:28.525Z,2.8
2019-01-09T10:35:37.713Z,2.8
2019-01-09T10:36:47.101Z,2.8
2019-01-09T10:37:56.224Z,2.8
2019-01-09T10:39:05.303Z,2.8
2019-01-09T10:40:14.514Z,2.8
2019-01-09T10:41:23.711Z,2.8
2019-01-09T10:42:32.950Z,2.7
2019-01-09T10:43:42.118Z,2.8
2019-01-09T10:44:51.366Z,2.7
2019-01-09T10:46:00.560Z,2.8
2019-01-09T10:47:09.713Z,2.8
2019-01-09T10:48:18.915Z,2.7
2019-01-09T10:49:28.125Z,2.7
2019-01-09T10:50:37.327Z,2.8
2019-01-09T10:51:46.557Z,2.8
2019-01-09T10:52:55.722Z,2.8
2019-01-09T10:54:04.942Z,2.8
2019-01-09T10:55:14.121Z,2.8
2019-01-09T10:56:23.328Z,2.8
2019-01-09T10:57:32.521Z,2.8
2019-01-09T10:58:41.767Z,2.9
2019-01-09T10:59:50.925Z,2.8
2019-01-09T11:01:00.125Z,2.8
2019-01-09T11:02:09.332Z,2.9
2019-01-09T11:03:18.549Z,2.8
2019-01-09T11:04:27.753Z,2.8
2019-01-09T11:05:36.929Z,2.9
2019-01-09T11:06:46.248Z,2.8
2019-01-09T11:07:55.332Z,2.8
2019-01-09T11:09:04.537Z,2.8
2019-01-09T11:10:13.741Z,2.8
2019-01-09T11:11:22.944Z,2.9
2019-01-09T11:12:32.146Z,2.9
2019-01-09T11:13:41.347Z,2.9
2019-01-09T11:14:50.543Z,2.9
2019-01-09T11:15:59.753Z,2.9
2019-01-09T11:17:08.959Z,3
2019-01-09T11:18:18.258Z,2.9
2019-01-09T11:19:27.485Z,3
2019-01-09T11:20:36.586Z,3
2019-01-09T11:21:45.777Z,2.9
2019-01-09T11:22:54.981Z,3
2019-01-09T11:24:04.191Z,3
2019-01-09T11:25:13.385Z,3
2019-01-09T11:26:22.600Z,3
2019-01-09T11:27:31.796Z,3
2019-01-09T11:28:41.014Z,3
2019-01-09T11:29:50.218Z,3.1
2019-01-09T11:30:59.415Z,3.1
2019-01-09T11:32:09.570Z,3.1
2019-01-09T11:33:17.833Z,3.1
2019-01-09T11:34:27.044Z,3.1
2019-01-09T11:35:36.247Z,3.2
2019-01-09T11:36:45.466Z,3.2
2019-01-09T11:37:54.703Z,3.2
2019-01-09T11:39:03.886Z,3.2
2019-01-09T11:40:13.094Z,3.2
2019-01-09T11:41:22.312Z,3.2
2019-01-09T11:42:31.551Z,3.2
2019-01-09T11:43:40.724Z,3.2
2019-01-09T11:44:49.931Z,3.1
2019-01-09T11:45:59.163Z,3.1
2019-01-09T11:47:08.368Z,3.1
2019-01-09T11:48:17.574Z,3.1
2019-01-09T11:49:26.826Z,3.2
2019-01-09T11:50:36.032Z,3.2
2019-01-09T11:51:45.220Z,3.2
2019-01-09T11:52:54.442Z,3.2
2019-01-09T11:54:03.666Z,3.2
2019-01-09T11:55:12.856Z,3.3
2019-01-09T11:56:22.105Z,3.2
2019-01-09T11:57:31.436Z,3.2
2019-01-09T11:58:40.512Z,3.2
2019-01-09T11:59:49.706Z,3.2
2019-01-09T12:00:58.954Z,3.2
2019-01-09T12:02:08.154Z,3.3
2019-01-09T12:03:17.429Z,3.3
2019-01-09T12:04:26.572Z,3.3
2019-01-09T12:05:35.786Z,3.3
2019-01-09T12:06:44.991Z,3.2
2019-01-09T12:07:54.211Z,3.2
2019-01-09T12:09:04.569Z,3.2
2019-01-09T12:10:12.642Z,3.2
2019-01-09T12:11:21.897Z,3.1
2019-01-09T12:12:31.109Z,3.2
2019-01-09T12:13:40.286Z,3.2
2019-01-09T12:14:49.500Z,3.1
2019-01-09T12:16:07.534Z,3.2
2019-01-09T12:17:07.942Z,3.1
2019-01-09T12:18:17.146Z,3.1
2019-01-09T12:19:26.339Z,3
2019-01-09T12:20:35.554Z,3
2019-01-09T12:21:44.760Z,3
2019-01-09T12:22:54.061Z,3
2019-01-09T12:24:03.179Z,3
2019-01-09T12:25:12.394Z,3
2019-01-09T12:26:21.615Z,2.9
2019-01-09T12:27:30.809Z,3
2019-01-09T12:28:40.011Z,3
2019-01-09T12:29:49.219Z,3
2019-01-09T12:30:58.427Z,3
2019-01-09T12:32:07.655Z,3
2019-01-09T12:33:16.870Z,2.9
2019-01-09T12:34:26.074Z,3
2019-01-09T12:35:35.293Z,2.9
2019-01-09T12:36:44.473Z,2.9
2019-01-09T12:37:53.680Z,2.9
2019-01-09T12:39:02.890Z,2.9
2019-01-09T12:40:12.139Z,3
2019-01-09T12:41:21.311Z,3
2019-01-09T12:42:30.509Z,2.9
2019-01-09T12:43:39.739Z,2.9
2019-01-09T12:44:48.973Z,2.9
2019-01-09T12:45:58.152Z,2.9
2019-01-09T12:47:07.335Z,3
2019-01-09T12:48:16.596Z,2.9
2019-01-09T12:49:25.764Z,2.9
2019-01-09T12:50:35.085Z,2.9
2019-01-09T12:51:44.198Z,2.9
2019-01-09T12:52:53.374Z,2.9
2019-01-09T12:54:02.580Z,2.9
2019-01-09T12:55:11.790Z,3
2019-01-09T12:56:21.001Z,3
2019-01-09T12:57:30.263Z,3
2019-01-09T12:58:39.438Z,3
2019-01-09T12:59:48.665Z,3
2019-01-09T13:00:57.832Z,3
2019-01-09T13:02:07.042Z,3
2019-01-09T13:03:16.308Z,3
2019-01-09T13:04:25.451Z,3
2019-01-09T13:05:34.703Z,3
2019-01-09T13:06:43.889Z,3.1
2019-01-09T13:07:53.070Z,3.1
2019-01-09T13:09:02.328Z,3.1
2019-01-09T13:10:11.487Z,3.1
2019-01-09T13:11:20.695Z,3
2019-01-09T13:12:29.932Z,3.1
2019-01-09T13:13:39.150Z,3.1
2019-01-09T13:14:48.318Z,3.1
2019-01-09T13:15:57.539Z,3.1
2019-01-09T13:17:11.762Z,3.1
2019-01-09T13:18:15.962Z,3.1
2019-01-09T13:19:25.161Z,3.1
2019-01-09T13:20:34.368Z,3.1
2019-01-09T13:21:43.574Z,3.1
2019-01-09T13:22:52.781Z,3.1
2019-01-09T13:24:02.004Z,3.1
2019-01-09T13:25:11.203Z,3.1
2019-01-09T13:26:20.405Z,3.1
2019-01-09T13:27:29.617Z,3.1
2019-01-09T13:28:38.841Z,3.1
2019-01-09T13:29:48.066Z,3.1
2019-01-09T13:30:57.233Z,3.1
2019-01-09T13:32:06.530Z,3
2019-01-09T13:33:15.665Z,3
2019-01-09T13:34:24.877Z,3
2019-01-09T13:35:34.079Z,3
2019-01-09T13:36:43.299Z,3.1
2019-01-09T13:37:52.519Z,3
2019-01-09T13:39:01.702Z,3.1
2019-01-09T13:40:10.903Z,3
2019-01-09T13:41:20.133Z,3
2019-01-09T13:42:29.317Z,3
2019-01-09T13:43:38.547Z,3
2019-01-09T13:44:47.767Z,3
2019-01-09T13:45:56.938Z,3
2019-01-09T13:47:06.132Z,3.1
2019-01-09T13:48:15.344Z,3.1
2019-01-09T13:49:24.552Z,3.1
2019-01-09T13:50:33.785Z,3.1
2019-01-09T13:51:42.967Z,3.1
2019-01-09T13:52:52.173Z,3.1
2019-01-09T13:54:01.580Z,3.1
2019-01-09T13:55:10.579Z,3.1
2019-01-09T13:56:19.891Z,3.1
2019-01-09T13:57:28.997Z,3.1
2019-01-09T13:58:38.216Z,3.1
2019-01-09T13:59:47.464Z,3.1
2019-01-09T14:00:56.622Z,3.1
2019-01-09T14:02:05.868Z,3.1
2019-01-09T14:03:15.036Z,3.2
2019-01-09T14:04:24.280Z,3.1
2019-01-09T14:05:33.451Z,3.2
2019-01-09T14:06:42.728Z,3.1
2019-01-09T14:07:51.868Z,3.2
2019-01-09T14:09:01.075Z,3.1
2019-01-09T14:10:11.033Z,3.1
2019-01-09T14:11:19.483Z,3.1
2019-01-09T14:12:28.688Z,3.1
2019-01-09T14:13:37.896Z,3.1
2019-01-09T14:14:47.145Z,3.1
2019-01-09T14:15:56.319Z,3.1
2019-01-09T14:17:05.527Z,3.1
2019-01-09T14:18:14.731Z,3.1
2019-01-09T14:19:23.948Z,3.1
2019-01-09T14:20:33.148Z,3.1
2019-01-09T14:21:42.353Z,3.1
2019-01-09T14:22:51.557Z,3.1
2019-01-09T14:24:00.785Z,3.1
2019-01-09T14:25:09.989Z,3.1
2019-01-09T14:26:19.218Z,3.1
2019-01-09T14:27:28.418Z,3
2019-01-09T14:28:37.587Z,3.1
2019-01-09T14:29:46.801Z,3.1
2019-01-09T14:30:56.039Z,3.1
2019-01-09T14:32:05.198Z,3
2019-01-09T14:33:14.416Z,3
2019-01-09T14:34:23.611Z,3
2019-01-09T14:35:32.858Z,3.1
2019-01-09T14:36:42.029Z,3
2019-01-09T14:37:51.241Z,3.1
2019-01-09T14:39:00.441Z,3
2019-01-09T14:40:09.653Z,3
2019-01-09T14:41:19.917Z,3
2019-01-09T14:42:28.061Z,3
2019-01-09T14:43:37.254Z,3
2019-01-09T14:44:46.507Z,3
2019-01-09T14:45:55.835Z,2.9
2019-01-09T14:47:04.873Z,3
2019-01-09T14:48:14.072Z,2.9
2019-01-09T14:49:23.291Z,2.9
2019-01-09T14:50:32.518Z,3
2019-01-09T14:51:43.163Z,2.9
2019-01-09T14:52:50.890Z,2.9
2019-01-09T14:54:00.195Z,2.9
2019-01-09T14:55:09.456Z,2.9
2019-01-09T14:56:18.497Z,2.9
2019-01-09T14:57:27.702Z,2.9
2019-01-09T14:58:36.914Z,2.9
2019-01-09T14:59:46.096Z,2.9
2019-01-09T15:00:55.316Z,2.8
2019-01-09T15:02:04.592Z,2.8
2019-01-09T15:03:13.711Z,2.8
2019-01-09T15:04:22.944Z,2.7
2019-01-09T15:05:32.192Z,2.7
2019-01-09T15:06:41.350Z,2.7
2019-01-09T15:07:50.530Z,2.7
2019-01-09T15:08:59.732Z,2.7
2019-01-09T15:10:08.928Z,2.6
2019-01-09T15:11:18.130Z,2.6
2019-01-09T15:12:27.319Z,2.7
2019-01-09T15:13:36.535Z,2.6
2019-01-09T15:14:45.834Z,2.6
2019-01-09T15:15:55.010Z,2.6
2019-01-09T15:17:04.098Z,2.7
2019-01-09T15:18:13.340Z,2.6
2019-01-09T15:19:22.507Z,2.6
2019-01-09T15:20:31.683Z,2.6
2019-01-09T15:21:40.892Z,2.6
2019-01-09T15:22:50.086Z,2.6
2019-01-09T15:23:59.278Z,2.6
2019-01-09T15:25:08.474Z,2.5
2019-01-09T15:26:17.685Z,2.6
2019-01-09T15:27:26.915Z,2.6
2019-01-09T15:28:36.062Z,2.6
2019-01-09T15:29:45.255Z,2.5
2019-01-09T15:30:54.463Z,2.5
2019-01-09T15:32:03.663Z,2.6
2019-01-09T15:33:12.843Z,2.6
2019-01-09T15:34:22.066Z,2.5
2019-01-09T15:35:31.364Z,2.5
2019-01-09T15:36:40.436Z,2.5
2019-01-09T15:37:49.680Z,2.6
2019-01-09T15:38:58.825Z,2.5
2019-01-09T15:40:08.018Z,2.5
2019-01-09T15:41:17.234Z,2.5
2019-01-09T15:42:26.432Z,2.5
2019-01-09T15:43:35.597Z,2.5
2019-01-09T15:44:44.857Z,2.5
2019-01-09T15:45:53.991Z,2.5
2019-01-09T15:47:03.176Z,2.5
2019-01-09T15:48:12.368Z,2.5
2019-01-09T15:49:21.570Z,2.5
2019-01-09T15:50:30.764Z,2.5
2019-01-09T15:51:39.951Z,2.5
2019-01-09T15:52:49.150Z,2.4
2019-01-09T15:53:58.344Z,2.5
2019-01-09T15:55:07.537Z,2.4
2019-01-09T15:56:16.775Z,2.5
2019-01-09T15:57:25.925Z,2.5
2019-01-09T15:58:35.170Z,2.5
2019-01-09T15:59:44.429Z,2.5
2019-01-09T16:00:53.502Z,2.5
2019-01-09T16:02:02.689Z,2.5